Аэропорт: Основа. Харьков

ICAO: UKHH

METAR:
2019-12-12 11:00:00
UKHH 121100Z 11005MPS 7000 OVC005 02/02 Q1021 R07/0///81 NOSIG
METAR:
2019-12-12 09:06:00
TAF AMD UKHH 120906Z 1209/1306 11005MPS 1600 BR OVC004 TX03/1212Z TN02/1209Z TEMPO 1209/1212 0600 -DZ FG OVC002 BECMG 1212/1213 2100 BKN005 TEMPO 1216/1306 0400 FG OVC001